Time;durP1;ratioP1;P1;durP2;ratioP2;P2;SDS_P1;SDS_P2;PMS_P1;PMS_P2;Temp;Humidity;BMP_temperature;BMP_pressure;BME280_temperature;BME280_humidity;BME280_pressure;Samples;Min_cycle;Max_cycle;Signal;HPM_P1;HPM_P2
2022/03/03 00:00:47;;;;;;;16.43;9.37;;;;;;;1.62;58.10;101971.03;4990175;28;20041;-91
2022/03/03 00:03:12;;;;;;;18.00;10.83;;;;;;;1.63;58.18;101970.19;4989747;28;20038;-91
2022/03/03 00:05:37;;;;;;;18.97;10.73;;;;;;;1.63;59.11;101972.75;4988367;28;20473;-91
2022/03/03 00:08:03;;;;;;;18.40;10.03;;;;;;;1.63;58.54;101972.75;4988971;28;20065;-91
2022/03/03 00:10:28;;;;;;;18.97;10.00;;;;;;;1.61;58.66;101976.97;4991131;28;20109;-92
2022/03/03 00:12:54;;;;;;;17.20;10.37;;;;;;;1.60;59.52;101962.41;4989208;28;20019;-91
2022/03/03 00:15:19;;;;;;;17.83;10.17;;;;;;;1.61;59.69;101971.84;4990488;28;20472;-91
2022/03/03 00:17:44;;;;;;;17.13;9.70;;;;;;;1.58;58.91;101974.31;4988736;28;20037;-91
2022/03/03 00:20:10;;;;;;;18.37;9.80;;;;;;;1.57;59.01;101972.56;4991861;28;20035;-91
2022/03/03 00:22:35;;;;;;;20.00;10.90;;;;;;;1.53;59.46;101970.75;4989490;28;20045;-91
2022/03/03 00:25:01;;;;;;;17.50;10.30;;;;;;;1.51;58.69;101967.28;4990745;28;20034;-90
2022/03/03 00:27:26;;;;;;;17.70;9.90;;;;;;;1.51;58.92;101968.13;4988400;28;20034;-91
2022/03/03 00:29:52;;;;;;;18.57;10.23;;;;;;;1.51;58.91;101968.13;4988193;28;20084;-91
2022/03/03 00:32:18;;;;;;;16.67;10.03;;;;;;;1.47;58.95;101968.84;4990405;28;20022;-92
2022/03/03 00:34:43;;;;;;;17.80;10.43;;;;;;;1.48;58.68;101967.19;4988784;28;20370;-91
2022/03/03 00:37:09;;;;;;;18.63;9.90;;;;;;;1.45;59.65;101964.53;4990687;28;20044;-91
2022/03/03 00:39:34;;;;;;;19.93;10.57;;;;;;;1.43;59.26;101955.91;4989066;28;20508;-91
2022/03/03 00:41:59;;;;;;;17.93;10.13;;;;;;;1.42;58.98;101951.59;4989782;28;20600;-91
2022/03/03 00:44:24;;;;;;;19.20;10.60;;;;;;;1.42;59.02;101956.72;4988541;28;20102;-91
2022/03/03 00:46:49;;;;;;;18.70;10.60;;;;;;;1.42;59.06;101951.59;4991654;28;20109;-92
2022/03/03 00:49:15;;;;;;;17.47;10.63;;;;;;;1.39;59.25;101952.38;4988966;28;20030;-91
2022/03/03 00:51:40;;;;;;;20.10;10.90;;;;;;;1.36;59.39;101952.28;4990646;28;20031;-91
2022/03/03 00:54:05;;;;;;;19.17;10.73;;;;;;;1.32;59.84;101950.44;4989592;28;20429;-91
2022/03/03 00:56:31;;;;;;;17.90;10.23;;;;;;;1.29;60.24;101948.69;4992841;28;20105;-91
2022/03/03 00:58:56;;;;;;;17.30;10.27;;;;;;;1.26;60.77;101953.69;4992875;28;20050;-92
2022/03/03 01:01:21;;;;;;;17.37;10.23;;;;;;;1.25;60.64;101943.41;4993484;28;20034;-92
2022/03/03 01:03:47;;;;;;;16.43;10.30;;;;;;;1.21;60.69;101953.56;4993166;28;20038;-92
2022/03/03 01:06:13;;;;;;;17.00;9.63;;;;;;;1.18;59.98;101955.19;4993627;28;20037;-91
2022/03/03 01:08:38;;;;;;;17.07;10.13;;;;;;;1.12;61.44;101950.69;4992230;28;20026;-92
2022/03/03 01:11:06;;;;;;;18.33;10.17;;;;;;;1.10;61.16;101943.78;4993381;28;20044;-92
2022/03/03 01:13:32;;;;;;;16.53;10.17;;;;;;;1.03;60.87;101941.03;4993243;28;20061;-91
2022/03/03 01:15:58;;;;;;;17.03;9.97;;;;;;;1.01;61.26;101949.50;4991572;28;20427;-92
2022/03/03 01:18:23;;;;;;;16.97;9.50;;;;;;;0.99;61.30;101952.03;4993550;28;20037;-92
2022/03/03 01:20:49;;;;;;;19.37;10.73;;;;;;;0.99;60.58;101946.91;4992632;28;20481;-91
2022/03/03 01:23:15;;;;;;;17.67;10.87;;;;;;;0.96;61.24;101943.34;4991428;28;20141;-92
2022/03/03 01:25:40;;;;;;;16.77;10.23;;;;;;;0.94;60.85;101939.91;4992612;28;20030;-92
2022/03/03 01:28:05;;;;;;;17.83;9.60;;;;;;;0.89;60.66;101934.59;4993858;28;20046;-91
2022/03/03 01:30:31;;;;;;;17.87;10.43;;;;;;;0.87;61.11;101934.56;4991657;28;20091;-91
2022/03/03 01:32:56;;;;;;;17.97;10.27;;;;;;;0.85;61.85;101937.91;4991829;28;20470;-92
2022/03/03 01:35:21;;;;;;;17.23;9.93;;;;;;;0.83;62.93;101929.31;4992867;28;20026;-92
2022/03/03 01:37:47;;;;;;;17.80;10.97;;;;;;;0.82;62.41;101922.44;4990713;28;20493;-92
2022/03/03 01:40:13;;;;;;;20.57;10.03;;;;;;;0.83;61.28;101926.75;4992252;28;20033;-92
2022/03/03 01:42:38;;;;;;;19.23;10.57;;;;;;;0.78;61.97;101911.19;4992842;28;20029;-92
2022/03/03 01:45:04;;;;;;;16.20;10.20;;;;;;;0.74;61.87;101910.25;4995516;28;20061;-92
2022/03/03 01:47:30;;;;;;;17.10;10.13;;;;;;;0.74;60.65;101909.38;4992496;28;20121;-91
2022/03/03 01:49:57;;;;;;;18.80;10.33;;;;;;;0.73;62.33;101910.22;4991573;28;20165;-92
2022/03/03 01:52:22;;;;;;;18.87;10.07;;;;;;;0.70;63.03;101907.53;4991936;28;20030;-91
2022/03/03 01:54:48;;;;;;;17.23;9.83;;;;;;;0.67;62.76;101907.44;4991605;28;20084;-91
2022/03/03 01:57:19;;;;;;;18.87;10.43;;;;;;;0.65;62.27;101903.94;4991357;28;20470;-92
2022/03/03 01:59:45;;;;;;;17.20;9.82;;;;;;;0.59;62.67;101904.63;5008791;28;20506;-91
2022/03/03 02:02:11;;;;;;;18.23;9.97;;;;;;;0.56;61.61;101901.97;4992908;28;20430;-92
2022/03/03 02:04:40;;;;;;;16.90;9.77;;;;;;;0.55;61.62;101898.53;4991803;28;20030;-91
2022/03/03 02:07:10;;;;;;;19.93;10.50;;;;;;;0.54;61.40;101901.03;4990048;28;20034;-89
2022/03/03 02:09:36;;;;;;;19.43;11.03;;;;;;;0.53;61.37;101899.28;4991381;28;20026;-89
2022/03/03 02:12:02;;;;;;;19.80;11.50;;;;;;;0.50;61.35;101897.50;4992822;28;20033;-89
2022/03/03 02:14:28;;;;;;;19.13;10.77;;;;;;;0.48;61.45;101898.28;4991887;28;20029;-90
2022/03/03 02:16:53;;;;;;;19.43;11.00;;;;;;;0.47;61.77;101899.13;4992930;28;20105;-89
2022/03/03 02:19:19;;;;;;;19.17;11.40;;;;;;;0.44;61.93;101892.19;4992348;28;20031;-90
2022/03/03 02:21:53;;;;;;;18.50;10.87;;;;;;;0.40;62.07;101891.22;4991913;28;20022;-89
2022/03/03 02:24:20;;;;;;;21.07;11.03;;;;;;;0.37;61.57;101888.56;4991441;28;20026;-89
2022/03/03 02:26:46;;;;;;;19.40;10.60;;;;;;;0.34;61.91;101893.59;4993063;28;20030;-90
2022/03/03 02:29:12;;;;;;;17.53;10.47;;;;;;;0.30;61.40;101892.59;4989715;28;20184;-89
2022/03/03 02:31:38;;;;;;;19.97;11.03;;;;;;;0.29;61.79;101895.13;4991097;28;20554;-90
2022/03/03 02:34:04;;;;;;;19.83;10.07;;;;;;;0.21;62.11;101884.63;4990816;28;20109;-90
2022/03/03 02:36:29;;;;;;;17.87;10.77;;;;;;;0.16;62.13;101878.47;4992271;28;20122;-90
2022/03/03 02:39:00;;;;;;;21.13;10.70;;;;;;;0.07;63.03;101879.03;4991749;28;20034;-89
2022/03/03 02:41:26;;;;;;;19.73;10.40;;;;;;;0.03;63.02;101886.56;4990501;28;20040;-90
2022/03/03 02:43:52;;;;;;;18.53;10.57;;;;;;;-0.03;63.16;101885.50;4992083;28;20057;-88
2022/03/03 02:46:18;;;;;;;19.90;10.50;;;;;;;-0.04;63.26;101880.34;4990870;28;20042;-89
2022/03/03 02:48:44;;;;;;;18.10;10.27;;;;;;;-0.08;63.63;101881.91;4991347;28;20022;-90
2022/03/03 02:51:09;;;;;;;18.57;10.70;;;;;;;-0.10;62.90;101865.66;4991164;28;20062;-89
2022/03/03 02:53:35;;;;;;;19.93;10.87;;;;;;;-0.09;62.81;101863.97;4991418;28;20113;-89
2022/03/03 02:56:01;;;;;;;18.47;10.43;;;;;;;-0.05;62.85;101870.94;5006921;28;20080;-89
2022/03/03 02:58:27;;;;;;;20.17;10.97;;;;;;;-0.04;63.13;101870.97;4991732;28;20129;-90
2022/03/03 03:00:52;;;;;;;21.43;10.97;;;;;;;-0.02;62.84;101873.59;4992544;28;20112;-89
2022/03/03 03:03:18;;;;;;;19.77;11.17;;;;;;;0.00;62.64;101871.97;4992356;28;20072;-89
2022/03/03 03:05:45;;;;;;;21.50;11.40;;;;;;;-0.02;63.10;101873.59;5006482;28;20026;-90
2022/03/03 03:08:11;;;;;;;21.73;10.77;;;;;;;-0.05;63.78;101876.91;4990368;28;20023;-90
2022/03/03 03:10:37;;;;;;;21.63;10.80;;;;;;;-0.09;64.09;101871.63;4990193;28;20037;-89
2022/03/03 03:13:04;;;;;;;21.50;11.50;;;;;;;-0.11;64.37;101875.81;5007197;28;20030;-90
2022/03/03 03:15:29;;;;;;;17.33;9.83;;;;;;;-0.08;64.42;101873.38;4991446;28;20116;-90
2022/03/03 03:17:55;;;;;;;15.47;9.70;;;;;;;-0.11;64.49;101870.72;4992329;28;20481;-89
2022/03/03 03:20:21;;;;;;;17.93;10.17;;;;;;;-0.15;64.41;101862.06;4990447;28;20027;-90
2022/03/03 03:22:46;;;;;;;20.60;10.17;;;;;;;-0.16;64.16;101858.63;4990447;28;20029;-89
2022/03/03 03:25:13;;;;;;;18.87;10.73;;;;;;;-0.19;64.02;101856.00;4991776;28;20044;-89
2022/03/03 03:27:40;;;;;;;19.47;10.87;;;;;;;-0.20;63.83;101856.81;4991348;28;20034;-88
2022/03/03 03:30:08;;;;;;;17.80;10.40;;;;;;;-0.20;64.49;101861.91;4989836;28;20032;-89
2022/03/03 03:32:33;;;;;;;21.53;10.77;;;;;;;-0.21;64.25;101861.84;4990923;28;20030;-89
2022/03/03 03:34:58;;;;;;;17.83;10.10;;;;;;;-0.21;63.82;101856.72;4989593;28;20485;-89
2022/03/03 03:37:24;;;;;;;20.80;10.80;;;;;;;-0.21;63.86;101854.16;4991125;28;20027;-89
2022/03/03 03:39:50;;;;;;;19.10;10.20;;;;;;;-0.22;64.38;101855.88;5005590;28;20022;-89
2022/03/03 03:42:15;;;;;;;21.93;11.03;;;;;;;-0.23;63.90;101859.25;4992522;28;20113;-90
2022/03/03 03:44:40;;;;;;;19.40;10.60;;;;;;;-0.25;64.43;101853.19;4990318;28;20073;-89
2022/03/03 03:47:06;;;;;;;17.70;9.83;;;;;;;-0.30;65.16;101849.59;4990916;28;20033;-89
2022/03/03 03:49:33;;;;;;;18.50;10.17;;;;;;;-0.33;64.23;101849.50;4990217;28;20117;-89
2022/03/03 03:51:58;;;;;;;22.10;11.53;;;;;;;-0.38;64.57;101849.34;4988041;28;20058;-89
2022/03/03 03:54:23;;;;;;;21.70;11.27;;;;;;;-0.39;64.67;101846.72;4988871;28;20112;-89
2022/03/03 03:56:48;;;;;;;22.20;11.03;;;;;;;-0.41;64.23;101849.22;4991447;28;20033;-90
2022/03/03 03:59:14;;;;;;;18.43;10.47;;;;;;;-0.43;64.07;101848.31;4989993;28;20054;-89
2022/03/03 04:01:39;;;;;;;21.67;10.90;;;;;;;-0.48;64.40;101850.69;4991112;28;20019;-90
2022/03/03 04:04:04;;;;;;;20.10;10.63;;;;;;;-0.53;65.07;101854.78;4990028;28;20080;-90
2022/03/03 04:06:30;;;;;;;18.80;10.30;;;;;;;-0.55;65.42;101845.28;4989480;28;20110;-89
2022/03/03 04:08:55;;;;;;;16.80;9.87;;;;;;;-0.58;65.67;101834.97;4989985;28;20026;-89
2022/03/03 04:11:20;;;;;;;17.83;10.33;;;;;;;-0.58;65.71;101850.28;4989362;28;20026;-88
2022/03/03 04:13:46;;;;;;;17.97;10.53;;;;;;;-0.64;65.63;101835.59;4990376;28;20030;-90
2022/03/03 04:16:11;;;;;;;17.77;10.10;;;;;;;-0.70;66.46;101835.41;4988900;28;20018;-90
2022/03/03 04:18:37;;;;;;;18.13;10.20;;;;;;;-0.73;66.71;101835.28;4989425;28;20033;-90
2022/03/03 04:21:03;;;;;;;18.70;9.97;;;;;;;-0.77;66.64;101834.31;4989566;28;20030;-89
2022/03/03 04:23:29;;;;;;;16.70;9.90;;;;;;;-0.79;66.15;101831.69;4989006;28;20018;-89
2022/03/03 04:25:54;;;;;;;18.23;10.33;;;;;;;-0.82;65.42;101826.44;4991404;28;20053;-89
2022/03/03 04:28:19;;;;;;;19.90;10.50;;;;;;;-0.82;65.41;101826.44;4990545;28;20027;-90
2022/03/03 04:30:44;;;;;;;20.83;10.97;;;;;;;-0.82;65.03;101831.56;4993096;28;20018;-89
2022/03/03 04:33:10;;;;;;;21.47;10.93;;;;;;;-0.86;65.91;101824.63;4993406;28;20059;-89
2022/03/03 04:35:35;;;;;;;19.07;10.57;;;;;;;-0.89;65.69;101827.06;4993577;28;20024;-88
2022/03/03 04:38:00;;;;;;;18.10;9.77;;;;;;;-0.90;65.66;101830.44;4994213;28;20474;-89
2022/03/03 04:40:26;;;;;;;16.00;9.63;;;;;;;-0.92;65.98;101824.38;4993877;28;20084;-88
2022/03/03 04:42:51;;;;;;;17.23;9.63;;;;;;;-0.93;66.77;101818.38;4994768;28;20074;-89
2022/03/03 04:45:17;;;;;;;18.33;10.33;;;;;;;-0.93;67.26;101814.97;4993830;28;20165;-89
2022/03/03 04:47:42;;;;;;;19.80;10.57;;;;;;;-0.93;66.61;101807.31;4994009;28;20474;-89
2022/03/03 04:50:09;;;;;;;21.40;10.63;;;;;;;-0.96;67.12;101808.09;4994601;28;20375;-89
2022/03/03 04:52:34;;;;;;;18.70;9.83;;;;;;;-0.95;66.77;101808.94;4993041;28;20022;-89
2022/03/03 04:54:59;;;;;;;18.07;9.70;;;;;;;-1.01;66.86;101812.13;4992763;28;20026;-89
2022/03/03 04:57:25;;;;;;;20.33;10.67;;;;;;;-1.02;67.44;101807.84;4993737;28;20034;-89
2022/03/03 04:59:50;;;;;;;17.90;9.83;;;;;;;-1.04;67.54;101809.47;4992796;28;20042;-88
2022/03/03 05:02:15;;;;;;;18.23;10.10;;;;;;;-1.05;67.52;101810.28;4992574;28;20026;-89
2022/03/03 05:04:41;;;;;;;19.97;9.63;;;;;;;-1.08;67.01;101812.69;4992217;28;20026;-89
2022/03/03 05:07:06;;;;;;;18.77;10.23;;;;;;;-1.10;66.27;101807.56;4993444;28;20077;-88
2022/03/03 05:09:32;;;;;;;19.47;10.63;;;;;;;-1.13;65.66;101814.22;4994210;28;20385;-89
2022/03/03 05:11:59;;;;;;;21.03;10.77;;;;;;;-1.16;66.03;101809.84;4994122;28;20504;-88
2022/03/03 05:14:24;;;;;;;18.07;10.30;;;;;;;-1.19;65.86;101807.19;4992525;28;20415;-88
2022/03/03 05:16:49;;;;;;;19.73;10.87;;;;;;;-1.20;66.03;101812.25;4992376;28;20121;-88
2022/03/03 05:19:15;;;;;;;20.23;11.33;;;;;;;-1.22;65.68;101819.84;4993922;28;20019;-91
2022/03/03 05:21:40;;;;;;;20.93;10.77;;;;;;;-1.20;65.83;101810.56;4993617;28;20385;-91
2022/03/03 05:24:05;;;;;;;21.03;11.50;;;;;;;-1.22;66.06;101805.41;4992653;28;20030;-90
2022/03/03 05:26:31;;;;;;;23.70;11.17;;;;;;;-1.23;66.87;101807.91;4992428;28;20359;-92
2022/03/03 05:28:56;;;;;;;19.83;10.37;;;;;;;-1.25;67.38;101812.06;4992773;28;20026;-92
2022/03/03 05:31:21;;;;;;;20.70;10.30;;;;;;;-1.27;66.76;101813.69;4992376;28;20088;-91
2022/03/03 05:33:47;;;;;;;19.00;10.13;;;;;;;-1.26;67.36;101823.09;4991967;28;20018;-90
2022/03/03 05:36:13;;;;;;;17.30;9.47;;;;;;;-1.27;66.88;101821.34;4993618;28;20064;-91
2022/03/03 05:38:40;;;;;;;18.77;10.20;;;;;;;-1.30;66.85;101826.34;4992920;28;20022;-91
2022/03/03 05:41:06;;;;;;;16.10;9.40;;;;;;;-1.31;68.09;101824.59;4992988;28;20025;-90
2022/03/03 05:43:32;;;;;;;18.40;9.93;;;;;;;-1.31;68.26;101820.38;4992800;28;20382;-90
2022/03/03 05:45:58;;;;;;;18.30;9.40;;;;;;;-1.33;67.77;101822.00;4990980;28;20030;-90
2022/03/03 05:48:25;;;;;;;19.63;9.40;;;;;;;-1.33;67.57;101814.34;4992403;28;20389;-91
2022/03/03 05:50:51;;;;;;;20.23;9.83;;;;;;;-1.33;66.54;101811.78;4990594;28;20030;-89
2022/03/03 05:53:17;;;;;;;18.90;10.00;;;;;;;-1.34;66.83;101816.81;4993067;28;20030;-90
2022/03/03 05:56:09;;;;;;;19.23;9.87;;;;;;;-1.32;64.97;101805.88;4992795;28;20109;-90
2022/03/03 05:58:46;;;;;;;;;;;;;;;-1.28;64.51;101802.59;4992581;28;20050;-89
2022/03/03 06:01:13;;;;;;;19.63;10.57;;;;;;;-1.33;66.20;101816.00;4992878;28;20003;-89
2022/03/03 06:03:39;;;;;;;21.67;10.60;;;;;;;-1.37;66.23;101815.00;4990934;28;20030;-90
2022/03/03 06:06:16;;;;;;;21.90;11.23;;;;;;;-1.38;65.92;101815.81;4992014;28;20121;-90
2022/03/03 06:08:53;;;;;;;20.20;11.47;;;;;;;-1.43;66.25;101813.09;4989293;28;20417;-90
2022/03/03 06:11:20;;;;;;;21.90;10.93;;;;;;;-1.43;66.55;101818.19;5007251;28;20113;-90
2022/03/03 06:13:47;;;;;;;19.10;10.60;;;;;;;-1.44;66.93;101813.03;4991819;28;20045;-91
2022/03/03 06:16:19;;;;;;;20.30;10.63;;;;;;;-1.46;66.65;101815.53;4990445;28;20034;-89
2022/03/03 06:18:46;;;;;;;20.83;10.53;;;;;;;-1.46;65.80;101815.53;4988876;28;20030;-90
2022/03/03 06:21:12;;;;;;;20.87;11.07;;;;;;;-1.46;66.87;101815.53;4991480;28;20019;-90
2022/03/03 06:23:37;;;;;;;22.93;10.73;;;;;;;-1.45;67.78;101817.28;4991228;28;20022;-90
2022/03/03 06:26:06;;;;;;;21.00;10.93;;;;;;;-1.45;66.51;101814.72;4993415;28;20054;-90
2022/03/03 06:28:32;;;;;;;20.00;10.37;;;;;;;-1.46;66.34;101807.88;4992155;28;20026;-90
2022/03/03 06:30:58;;;;;;;21.73;11.20;;;;;;;-1.43;66.89;101814.75;4994508;28;20034;-88
2022/03/03 06:33:25;;;;;;;19.87;10.50;;;;;;;-1.42;66.73;101812.28;4991076;28;20030;-88
2022/03/03 06:35:51;;;;;;;18.90;10.63;;;;;;;-1.40;67.11;101815.78;4991917;28;20026;-89
2022/03/03 06:38:17;;;;;;;20.33;10.90;;;;;;;-1.38;66.77;101819.25;4992577;28;20022;-88
2022/03/03 06:40:42;;;;;;;21.63;11.60;;;;;;;-1.35;66.47;101822.72;4991382;28;20030;-88
2022/03/03 06:43:08;;;;;;;20.47;10.93;;;;;;;-1.32;67.03;101822.84;4990328;28;20061;-88
2022/03/03 06:45:34;;;;;;;24.73;11.90;;;;;;;-1.31;66.57;101822.94;4992914;28;20031;-89
2022/03/03 06:48:02;;;;;;;22.67;11.27;;;;;;;-1.29;66.65;101822.97;4989589;28;20539;-88
2022/03/03 06:50:28;;;;;;;19.77;10.57;;;;;;;-1.29;67.11;101833.19;4992573;28;20089;-88
2022/03/03 06:52:54;;;;;;;19.87;10.47;;;;;;;-1.29;66.37;101822.97;4992675;28;20981;-88
2022/03/03 06:55:23;;;;;;;20.27;10.40;;;;;;;-1.26;66.79;101820.53;4992474;28;20026;-89
2022/03/03 06:57:50;;;;;;;20.67;10.30;;;;;;;-1.23;66.76;101828.31;4991712;28;20480;-88
2022/03/03 07:00:18;;;;;;;22.60;11.00;;;;;;;-1.17;66.83;101831.09;4989871;28;20026;-88
2022/03/03 07:02:46;;;;;;;20.37;10.23;;;;;;;-1.16;66.15;101830.28;4992948;28;20049;-88
2022/03/03 07:05:12;;;;;;;21.40;10.70;;;;;;;-1.12;66.44;101832.16;4992646;28;20026;-88
2022/03/03 07:07:39;;;;;;;20.03;10.67;;;;;;;-1.07;66.47;101835.75;4991093;28;20029;-88
2022/03/03 07:10:05;;;;;;;20.93;11.17;;;;;;;-1.00;66.76;101835.97;4991898;28;20084;-88
2022/03/03 07:12:32;;;;;;;24.97;12.20;;;;;;;-0.95;67.36;101834.47;4991866;28;20034;-88
2022/03/03 07:14:57;;;;;;;20.73;10.97;;;;;;;-0.93;66.91;101832.84;4991223;28;20197;-88
2022/03/03 07:17:44;;;;;;;21.63;11.63;;;;;;;-0.88;66.77;101835.56;4992877;28;20144;-89
2022/03/03 07:20:16;;;;;;;20.43;11.17;;;;;;;-0.84;66.79;101838.28;4990189;28;20036;-89
2022/03/03 07:22:59;;;;;;;21.17;11.80;;;;;;;-0.79;66.69;101835.94;4992592;28;20037;-89
2022/03/03 07:25:35;;;;;;;22.57;11.13;;;;;;;-0.73;66.80;101840.41;4989903;28;20100;-89
2022/03/03 07:28:02;;;;;;;24.40;12.20;;;;;;;-0.69;67.92;101840.56;4990739;28;20172;-90
2022/03/03 07:30:28;;;;;;;24.77;12.77;;;;;;;-0.66;67.28;101842.34;4991719;28;20389;-88
2022/03/03 07:32:58;;;;;;;22.07;11.80;;;;;;;-0.63;67.39;101847.56;4991637;28;20560;-88
2022/03/03 07:35:25;;;;;;;23.83;12.70;;;;;;;-0.60;67.35;101845.13;4990086;28;20033;-89
2022/03/03 07:37:59;;;;;;;23.93;12.07;;;;;;;-0.56;67.03;101839.31;4990278;28;20038;-89
2022/03/03 07:40:27;;;;;;;24.27;11.93;;;;;;;-0.51;68.23;101836.94;4990612;28;20117;-88
2022/03/03 07:42:54;;;;;;;24.17;12.47;;;;;;;-0.47;67.91;101834.53;4995430;28;20350;-88
2022/03/03 07:45:20;;;;;;;22.90;11.60;;;;;;;-0.41;67.79;101843.25;4992218;28;20030;-89
2022/03/03 07:47:49;;;;;;;20.57;11.23;;;;;;;-0.35;67.82;101848.59;4992172;28;20030;-89
2022/03/03 07:50:15;;;;;;;21.60;11.63;;;;;;;-0.31;67.50;101840.19;4991658;28;20040;-88
2022/03/03 07:52:43;;;;;;;20.17;11.13;;;;;;;-0.23;66.92;101848.13;4990700;28;20037;-89
2022/03/03 07:55:09;;;;;;;23.17;11.60;;;;;;;-0.15;66.35;101851.84;4990838;28;20045;-88
2022/03/03 07:57:46;;;;;;;23.87;11.50;;;;;;;-0.05;66.19;101853.03;4990454;28;20019;-89
2022/03/03 08:00:15;;;;;;;21.63;10.97;;;;;;;0.03;66.34;101858.41;5005955;28;20130;-89
2022/03/03 08:02:45;;;;;;;22.47;11.90;;;;;;;0.11;66.71;101859.53;4989180;28;20385;-89
2022/03/03 08:05:11;;;;;;;22.80;12.17;;;;;;;0.18;66.06;101855.47;4992333;28;20053;-89
2022/03/03 08:07:45;;;;;;;20.77;11.77;;;;;;;0.25;65.77;101860.00;4995237;28;20042;-89
2022/03/03 08:10:12;;;;;;;23.60;11.90;;;;;;;0.34;66.49;101865.44;4995380;28;20031;-89
2022/03/03 08:12:39;;;;;;;23.07;11.60;;;;;;;0.40;66.57;101863.06;4994866;28;20088;-89
2022/03/03 08:15:06;;;;;;;21.70;12.17;;;;;;;0.45;66.67;101861.53;4994848;28;20091;-89
2022/03/03 08:17:33;;;;;;;23.03;13.13;;;;;;;0.52;67.11;101861.69;4993026;28;20030;-89
2022/03/03 08:20:04;;;;;;;23.73;12.30;;;;;;;0.58;66.73;101859.34;4995985;28;20065;-89
2022/03/03 08:22:31;;;;;;;25.85;12.18;;;;;;;0.65;66.19;101860.41;4993591;28;20068;-90
2022/03/03 08:24:58;;;;;;;21.73;12.13;;;;;;;0.71;66.55;101866.59;4993327;28;20029;-89
2022/03/03 08:27:25;;;;;;;21.60;11.30;;;;;;;0.78;66.58;101862.53;4994140;28;20384;-90
2022/03/03 08:29:52;;;;;;;22.97;12.30;;;;;;;0.86;66.16;101852.53;4995162;28;20470;-90
2022/03/03 08:32:19;;;;;;;23.40;11.80;;;;;;;0.96;65.81;101849.44;4994104;28;20759;-90
2022/03/03 08:35:09;;;;;;;19.87;11.57;;;;;;;1.04;65.32;101853.09;4994336;28;20030;-89
2022/03/03 08:37:39;;;;;;;21.23;10.87;;;;;;;1.15;65.04;101860.25;4994036;28;20054;-90
2022/03/03 08:40:07;;;;;;;20.27;11.37;;;;;;;1.22;64.20;101854.44;4994434;28;20022;-90
2022/03/03 08:42:56;;;;;;;19.70;11.07;;;;;;;1.34;63.83;101856.50;4994519;28;20058;-91
2022/03/03 08:45:29;;;;;;;21.30;10.80;;;;;;;1.42;64.61;101851.59;4994924;28;20109;-91
2022/03/03 08:47:58;;;;;;;20.97;11.10;;;;;;;1.49;63.48;101845.81;4993611;28;20026;-91
2022/03/03 08:50:27;;;;;;;21.67;10.97;;;;;;;1.58;63.08;101853.75;4994521;28;20026;-91
2022/03/03 08:52:54;;;;;;;19.33;10.70;;;;;;;1.67;63.87;101856.59;4992947;28;20061;-90
2022/03/03 08:55:20;;;;;;;21.60;11.00;;;;;;;1.75;63.12;101853.34;4995500;28;20073;-90
2022/03/03 08:57:45;;;;;;;20.20;10.40;;;;;;;1.84;62.13;101845.94;4991313;28;20065;-90
2022/03/03 09:00:11;;;;;;;21.47;11.10;;;;;;;1.93;62.18;101838.44;5009428;28;20130;-90
2022/03/03 09:02:37;;;;;;;20.63;10.50;;;;;;;2.06;62.25;101839.66;4994552;28;20529;-90
2022/03/03 09:05:03;;;;;;;17.63;10.10;;;;;;;2.16;62.17;101834.72;4992996;28;20046;-90
2022/03/03 09:07:28;;;;;;;19.27;9.97;;;;;;;2.25;61.90;101835.84;4994179;28;20026;-90
2022/03/03 09:09:54;;;;;;;18.53;10.03;;;;;;;2.37;60.15;101837.00;4994427;28;20045;-90
2022/03/03 09:12:20;;;;;;;21.13;10.33;;;;;;;2.48;59.28;101837.22;4993505;28;20025;-90
2022/03/03 09:14:45;;;;;;;20.57;10.07;;;;;;;2.54;58.10;101833.13;4995010;28;20034;-90
2022/03/03 09:17:11;;;;;;;23.07;10.20;;;;;;;2.65;58.34;101835.06;4994175;28;20025;-91
2022/03/03 09:19:36;;;;;;;15.80;9.33;;;;;;;2.75;57.87;101839.56;4993107;28;20030;-91
2022/03/03 09:22:03;;;;;;;20.30;10.63;;;;;;;2.83;60.00;101830.34;4993572;28;20080;-91
2022/03/03 09:24:29;;;;;;;17.63;9.27;;;;;;;2.90;59.95;101838.19;4993552;28;20512;-91
2022/03/03 09:26:54;;;;;;;17.07;9.50;;;;;;;2.96;57.62;101836.63;4994447;28;20050;-91
2022/03/03 09:29:21;;;;;;;17.77;10.20;;;;;;;3.04;58.51;101834.22;4993604;28;20081;-90
2022/03/03 09:31:46;;;;;;;18.27;9.80;;;;;;;3.11;56.30;101828.34;4993025;28;20054;-90
2022/03/03 09:34:12;;;;;;;16.60;10.03;;;;;;;3.19;56.58;101821.69;4994435;28;20050;-89
2022/03/03 09:36:38;;;;;;;21.90;10.60;;;;;;;3.26;56.61;101822.69;4994419;28;20034;-91
2022/03/03 09:39:04;;;;;;;17.47;10.30;;;;;;;3.33;56.42;101819.38;4992080;28;20041;-89
2022/03/03 09:41:29;;;;;;;17.73;10.07;;;;;;;3.41;56.29;101824.69;4989522;28;20026;-89
2022/03/03 09:43:57;;;;;;;16.83;9.97;;;;;;;3.48;56.17;101826.53;4991977;28;20069;-90
2022/03/03 09:46:22;;;;;;;17.40;9.37;;;;;;;3.54;55.16;101815.50;4993849;28;20026;-91
2022/03/03 09:48:47;;;;;;;19.00;9.93;;;;;;;3.60;55.22;101823.34;4989823;28;20022;-91
2022/03/03 09:51:13;;;;;;;19.77;9.53;;;;;;;3.67;54.65;101819.16;4992995;28;20026;-90
2022/03/03 09:53:41;;;;;;;18.23;10.00;;;;;;;3.75;54.38;101825.34;4992735;28;20034;-90
2022/03/03 09:56:07;;;;;;;18.97;10.10;;;;;;;3.81;55.39;101819.44;4991586;28;20402;-90
2022/03/03 09:58:32;;;;;;;16.27;9.80;;;;;;;3.89;54.94;101822.16;4991255;28;20125;-90
2022/03/03 10:00:58;;;;;;;16.55;9.90;;;;;;;3.96;54.38;101816.25;4991582;28;20030;-90
2022/03/03 10:03:31;;;;;;;16.33;9.67;;;;;;;4.03;54.96;101812.94;4991701;28;20037;-90
2022/03/03 10:06:00;;;;;;;16.47;9.53;;;;;;;4.09;54.54;101813.06;4991864;28;20026;-91
2022/03/03 10:08:26;;;;;;;19.13;11.00;;;;;;;4.16;53.91;101821.75;5007843;28;20082;-90
2022/03/03 10:10:55;;;;;;;18.40;10.50;;;;;;;4.22;51.87;101810.69;4993319;28;20072;-91
2022/03/03 10:13:21;;;;;;;18.27;9.83;;;;;;;4.31;54.02;101815.97;4992562;28;20108;-90
2022/03/03 10:15:51;;;;;;;17.47;10.10;;;;;;;4.36;52.37;101809.19;4992506;28;20346;-91
2022/03/03 10:18:17;;;;;;;18.73;10.00;;;;;;;4.43;53.80;101811.88;4991601;28;20022;-89
2022/03/03 10:20:51;;;;;;;18.08;9.75;;;;;;;4.48;51.72;101803.38;5006923;28;20400;-90
2022/03/03 10:23:19;;;;;;;18.60;9.60;;;;;;;4.56;51.44;101811.22;4990646;28;20077;-90
2022/03/03 10:25:46;;;;;;;18.58;10.30;;;;;;;4.62;51.71;101808.69;4990073;28;20041;-91
2022/03/03 10:28:20;;;;;;;18.83;9.73;;;;;;;4.70;51.91;101808.81;4988567;28;20022;-91
2022/03/03 10:30:53;;;;;;;16.58;9.15;;;;;;;4.77;51.68;101809.78;4988951;28;20169;-91
2022/03/03 10:33:21;;;;;;;16.13;9.63;;;;;;;4.82;51.04;101809.00;4993117;28;20557;-90
2022/03/03 10:36:03;;;;;;;15.70;9.43;;;;;;;4.87;51.29;101806.47;4992623;28;20025;-91
2022/03/03 10:38:29;;;;;;;17.13;9.73;;;;;;;4.91;50.13;101808.25;4993011;28;20035;-90
2022/03/03 10:40:54;;;;;;;16.33;8.90;;;;;;;4.96;49.38;101805.75;5007701;28;20114;-90
2022/03/03 10:43:20;;;;;;;16.73;9.13;;;;;;;5.00;50.83;101803.22;4992063;28;20104;-90
2022/03/03 10:46:02;;;;;;;18.17;9.73;;;;;;;5.07;51.96;101803.31;4991595;28;20081;-90
2022/03/03 10:48:27;;;;;;;;;;;;;;;5.14;53.73;101800.81;4990750;28;20544;-91
2022/03/03 10:50:54;;;;;;;15.82;8.20;;;;;;;5.18;49.87;101803.44;4991607;28;19913;-92
2022/03/03 10:53:23;;;;;;;16.35;8.88;;;;;;;5.21;50.17;101791.44;5006778;28;20032;-93
2022/03/03 10:56:07;;;;;;;17.30;9.05;;;;;;;5.31;51.48;101797.56;4988300;28;20137;-92
2022/03/03 10:58:51;;;;;;;16.92;9.30;;;;;;;5.39;51.55;101800.25;5015644;28;20069;-94
2022/03/03 11:01:23;;;;;;;16.80;8.98;;;;;;;5.44;50.13;101801.16;4989095;28;20556;-95
2022/03/03 11:03:50;;;;;;;14.25;8.63;;;;;;;5.47;49.46;101798.59;4992399;28;20037;-93
2022/03/03 11:06:18;;;;;;;16.73;9.68;;;;;;;5.52;49.81;101807.25;4992482;28;20027;-91
2022/03/03 11:08:43;;;;;;;15.27;9.13;;;;;;;5.60;48.21;101800.47;4985680;28;20205;-91
2022/03/03 11:11:08;;;;;;;15.45;8.50;;;;;;;5.66;48.58;101799.66;4984761;28;20100;-89
2022/03/03 11:13:35;;;;;;;14.73;8.57;;;;;;;5.73;45.61;101785.97;4985760;28;20034;-91
2022/03/03 11:16:01;;;;;;;15.63;8.55;;;;;;;5.81;44.34;101786.03;5004409;28;20044;-94